createdAt,value
2024-01-30T00:00:29.309Z,72.23
2024-01-30T00:01:01.219Z,71.13
2024-01-30T00:01:33.081Z,73.30
2024-01-30T00:02:05.117Z,74.20
2024-01-30T00:02:36.954Z,73.00
2024-01-30T00:03:08.740Z,72.90
2024-01-30T00:03:40.572Z,72.90
2024-01-30T00:04:12.764Z,71.87
2024-01-30T00:04:44.585Z,72.80
2024-01-30T00:05:16.471Z,71.40
2024-01-30T00:05:48.545Z,74.50
2024-01-30T00:06:24.956Z,74.50
2024-01-30T00:06:56.809Z,72.57
2024-01-30T00:07:28.674Z,72.20
2024-01-30T00:08:00.574Z,71.53
2024-01-30T00:08:32.482Z,72.40
2024-01-30T00:09:04.334Z,74.13
2024-01-30T00:09:38.709Z,74.57
2024-01-30T00:10:10.550Z,73.83
2024-01-30T00:10:42.361Z,72.23
2024-01-30T00:11:14.091Z,74.03
2024-01-30T00:11:45.863Z,74.90
2024-01-30T00:12:17.685Z,75.60
2024-01-30T00:12:49.458Z,75.83
2024-01-30T00:13:21.558Z,75.87
2024-01-30T00:13:53.696Z,77.20
2024-01-30T00:14:25.499Z,76.57
2024-01-30T00:14:57.426Z,75.00
2024-01-30T00:15:29.388Z,76.10
2024-01-30T00:16:01.231Z,75.87
2024-01-30T00:16:33.239Z,73.67
2024-01-30T00:17:05.586Z,73.63
2024-01-30T00:17:38.556Z,72.20
2024-01-30T00:18:10.403Z,72.53
2024-01-30T00:18:42.269Z,75.27
2024-01-30T00:19:14.126Z,74.20
2024-01-30T00:19:46.114Z,72.30
2024-01-30T00:20:17.974Z,72.03
2024-01-30T00:20:49.795Z,73.83
2024-01-30T00:21:21.855Z,74.07
2024-01-30T00:21:53.632Z,74.70
2024-01-30T00:22:25.476Z,72.53
2024-01-30T00:22:57.278Z,72.40
2024-01-30T00:23:29.044Z,72.20
2024-01-30T00:24:00.802Z,71.53
2024-01-30T00:24:32.610Z,72.53
2024-01-30T00:25:04.618Z,73.50
2024-01-30T00:25:36.415Z,73.47
2024-01-30T00:26:08.176Z,75.57
2024-01-30T00:26:39.935Z,75.87
2024-01-30T00:27:11.692Z,74.73
2024-01-30T00:27:43.520Z,72.77
2024-01-30T00:28:15.365Z,73.33
2024-01-30T00:28:47.158Z,75.13
2024-01-30T00:29:20.986Z,77.40
2024-01-30T00:29:52.801Z,75.47
2024-01-30T00:30:24.594Z,73.97
2024-01-30T00:30:56.396Z,72.20
2024-01-30T00:31:28.187Z,72.00
2024-01-30T00:31:59.968Z,70.77
2024-01-30T00:32:31.835Z,70.67
2024-01-30T00:33:03.716Z,68.87
2024-01-30T00:33:35.504Z,69.90
2024-01-30T00:34:07.344Z,69.17
2024-01-30T00:34:39.278Z,69.47
2024-01-30T00:35:12.227Z,69.30
2024-01-30T00:35:44.004Z,69.10
2024-01-30T00:36:15.772Z,69.43
2024-01-30T00:36:47.561Z,68.20
2024-01-30T00:37:19.436Z,69.30
2024-01-30T00:37:51.315Z,70.50
2024-01-30T00:38:23.298Z,69.77
2024-01-30T00:38:55.092Z,68.30
2024-01-30T00:39:27.086Z,69.77
2024-01-30T00:39:58.895Z,68.77
2024-01-30T00:40:31.271Z,69.13
2024-01-30T00:41:03.402Z,68.67
2024-01-30T00:41:36.182Z,66.20
2024-01-30T00:42:08.179Z,66.57
2024-01-30T00:42:39.961Z,65.83
2024-01-30T00:43:11.928Z,65.07
2024-01-30T00:43:43.731Z,65.80
2024-01-30T00:44:15.508Z,66.23
2024-01-30T00:44:47.565Z,65.00
2024-01-30T00:45:19.456Z,64.57
2024-01-30T00:45:53.269Z,64.53
2024-01-30T00:46:25.110Z,67.77
2024-01-30T00:46:56.922Z,67.10
2024-01-30T00:47:30.389Z,65.17
2024-01-30T00:48:02.177Z,65.50
2024-01-30T00:48:33.941Z,66.30
2024-01-30T00:49:05.906Z,67.23
2024-01-30T00:49:37.909Z,65.93
2024-01-30T00:50:10.236Z,67.37
2024-01-30T00:50:42.040Z,64.93
2024-01-30T00:51:13.795Z,65.63
2024-01-30T00:51:45.576Z,67.97
2024-01-30T00:52:17.419Z,67.27
2024-01-30T00:52:49.314Z,65.40
2024-01-30T00:53:21.137Z,65.93
2024-01-30T00:53:52.973Z,64.43
2024-01-30T00:54:24.767Z,64.53
2024-01-30T00:54:56.552Z,65.50
2024-01-30T00:55:28.346Z,66.13
2024-01-30T00:56:00.171Z,64.07
2024-01-30T00:56:32.134Z,62.23
2024-01-30T00:57:04.012Z,62.40
2024-01-30T00:57:35.796Z,61.80
2024-01-30T00:58:07.571Z,61.27
2024-01-30T00:58:39.352Z,60.83
2024-01-30T00:59:11.139Z,61.23
2024-01-30T00:59:42.922Z,61.20
2024-01-30T01:00:18.443Z,61.87
2024-01-30T01:00:50.421Z,60.37
2024-01-30T01:01:22.428Z,60.60
2024-01-30T01:01:54.391Z,57.70
2024-01-30T01:02:26.249Z,57.33
2024-01-30T01:02:58.156Z,57.87
2024-01-30T01:03:32.174Z,56.23
2024-01-30T01:04:04.061Z,55.47
2024-01-30T01:04:36.020Z,54.80
2024-01-30T01:05:07.909Z,56.57
2024-01-30T01:05:40.313Z,55.17
2024-01-30T01:06:12.333Z,54.43
2024-01-30T01:06:45.603Z,53.53
2024-01-30T01:07:17.699Z,54.83
2024-01-30T01:07:49.776Z,54.80
2024-01-30T01:08:21.690Z,54.17
2024-01-30T01:08:53.455Z,55.13
2024-01-30T01:09:25.205Z,54.57
2024-01-30T01:09:57.004Z,53.93
2024-01-30T01:10:29.429Z,55.10
2024-01-30T01:11:01.233Z,54.97
2024-01-30T01:11:33.008Z,55.17
2024-01-30T01:12:05.538Z,54.87
2024-01-30T01:12:37.392Z,54.23
2024-01-30T01:13:09.298Z,54.87
2024-01-30T01:13:41.261Z,57.93
2024-01-30T01:14:13.042Z,57.23
2024-01-30T01:14:44.878Z,57.00
2024-01-30T01:15:16.654Z,56.27
2024-01-30T01:15:48.442Z,55.07
2024-01-30T01:16:22.920Z,55.87
2024-01-30T01:16:54.913Z,56.40
2024-01-30T01:17:26.698Z,53.97
2024-01-30T01:17:58.512Z,56.00
2024-01-30T01:18:30.320Z,54.57
2024-01-30T01:19:02.433Z,55.40
2024-01-30T01:19:34.652Z,55.37
2024-01-30T01:20:07.568Z,56.13
2024-01-30T01:20:39.328Z,55.57
2024-01-30T01:21:11.095Z,54.83
2024-01-30T01:21:42.904Z,54.80
2024-01-30T01:22:14.716Z,55.23
2024-01-30T01:22:46.540Z,53.40
2024-01-30T01:23:18.323Z,55.70
2024-01-30T01:23:50.088Z,56.97
2024-01-30T01:24:22.141Z,55.20
2024-01-30T01:24:54.002Z,55.27
2024-01-30T01:25:26.007Z,55.27
2024-01-30T01:26:00.627Z,54.27
2024-01-30T01:26:32.979Z,55.30
2024-01-30T01:27:04.866Z,56.37
2024-01-30T01:27:41.636Z,56.33
2024-01-30T01:28:14.464Z,55.20
2024-01-30T01:28:46.598Z,56.87
2024-01-30T01:29:18.395Z,57.40
2024-01-30T01:29:50.255Z,55.00
2024-01-30T01:30:24.974Z,53.00
2024-01-30T01:31:00.556Z,55.07
2024-01-30T01:31:32.471Z,58.13
2024-01-30T01:32:04.433Z,55.83
2024-01-30T01:32:36.213Z,54.60
2024-01-30T01:33:08.245Z,54.33
2024-01-30T01:33:40.306Z,52.47
2024-01-30T01:34:12.968Z,49.20
2024-01-30T01:34:44.977Z,50.67
2024-01-30T01:35:16.880Z,45.33
2024-01-30T01:35:48.701Z,53.47
2024-01-30T01:36:20.469Z,56.27
2024-01-30T01:36:52.557Z,56.73
2024-01-30T01:37:27.845Z,58.00
2024-01-30T01:38:01.562Z,58.33
2024-01-30T01:38:33.352Z,58.83
2024-01-30T01:39:05.264Z,58.83
2024-01-30T01:39:37.034Z,57.77
2024-01-30T01:40:09.043Z,58.90
2024-01-30T01:40:41.119Z,57.87
2024-01-30T01:41:12.872Z,56.63
2024-01-30T01:41:44.689Z,57.40
2024-01-30T01:42:16.452Z,59.00
2024-01-30T01:42:52.246Z,59.97
2024-01-30T01:43:24.222Z,59.17
2024-01-30T01:43:56.028Z,57.07
2024-01-30T01:44:28.161Z,57.17
2024-01-30T01:44:59.922Z,57.47
2024-01-30T01:45:31.700Z,56.67
2024-01-30T01:46:03.736Z,56.10
2024-01-30T01:46:35.808Z,56.80
2024-01-30T01:47:07.991Z,55.83
2024-01-30T01:47:39.824Z,55.50
2024-01-30T01:48:12.304Z,56.40
2024-01-30T01:48:44.719Z,54.97
2024-01-30T01:49:16.881Z,55.17
2024-01-30T01:49:49.201Z,54.87
2024-01-30T01:50:23.318Z,57.17
2024-01-30T01:50:55.504Z,56.00
2024-01-30T01:51:29.077Z,56.80
2024-01-30T01:52:01.696Z,55.13
2024-01-30T01:52:33.720Z,53.73
2024-01-30T01:53:09.055Z,53.27
2024-01-30T01:53:40.829Z,53.30
2024-01-30T01:54:12.922Z,53.93
2024-01-30T01:54:44.839Z,53.53
2024-01-30T01:55:17.526Z,52.93
2024-01-30T01:55:49.656Z,53.70
2024-01-30T01:56:22.303Z,54.63
2024-01-30T01:56:54.333Z,54.30
2024-01-30T01:57:26.140Z,55.90
2024-01-30T01:57:58.144Z,55.27
2024-01-30T01:58:30.832Z,54.07
2024-01-30T01:59:06.789Z,54.63
2024-01-30T01:59:38.741Z,52.57
2024-01-30T02:00:11.802Z,53.50
2024-01-30T02:00:43.734Z,52.67
2024-01-30T02:01:15.896Z,54.60
2024-01-30T02:01:50.593Z,53.83
2024-01-30T02:02:24.997Z,54.37
2024-01-30T02:02:57.755Z,54.73
2024-01-30T02:03:29.871Z,53.00
2024-01-30T02:04:02.291Z,53.03
2024-01-30T02:04:34.231Z,54.37
2024-01-30T02:05:06.392Z,54.27
2024-01-30T02:05:38.345Z,53.03
2024-01-30T02:06:10.549Z,53.67
2024-01-30T02:06:42.608Z,53.80
2024-01-30T02:07:14.679Z,51.87
2024-01-30T02:07:46.579Z,53.97
2024-01-30T02:08:18.447Z,52.33
2024-01-30T02:08:50.228Z,52.73
2024-01-30T02:09:22.162Z,52.77
2024-01-30T02:09:53.969Z,52.50
2024-01-30T02:10:25.856Z,52.27
2024-01-30T02:10:57.703Z,50.40
2024-01-30T02:11:29.574Z,52.77
2024-01-30T02:12:01.649Z,53.80
2024-01-30T02:12:33.435Z,51.57
2024-01-30T02:13:06.045Z,51.23
2024-01-30T02:13:38.144Z,52.77
2024-01-30T02:14:09.897Z,54.00
2024-01-30T02:14:47.978Z,52.40
2024-01-30T02:15:19.804Z,52.17
2024-01-30T02:15:52.110Z,51.27
2024-01-30T02:16:23.946Z,50.00
2024-01-30T02:16:58.259Z,49.87
2024-01-30T02:17:30.089Z,50.03
2024-01-30T02:18:01.911Z,50.67
2024-01-30T02:18:33.713Z,52.03
2024-01-30T02:19:06.729Z,50.83
2024-01-30T02:19:38.926Z,51.83
2024-01-30T02:20:11.091Z,51.87
2024-01-30T02:20:43.254Z,54.40
2024-01-30T02:21:16.686Z,54.73
2024-01-30T02:21:48.534Z,53.93
2024-01-30T02:22:21.527Z,53.03
2024-01-30T02:22:55.596Z,53.67
2024-01-30T02:23:27.366Z,52.53
2024-01-30T02:24:01.064Z,52.63
2024-01-30T02:24:32.946Z,51.87
2024-01-30T02:25:04.892Z,50.97
2024-01-30T02:25:39.831Z,50.17
2024-01-30T02:26:13.139Z,51.37
2024-01-30T02:26:45.235Z,50.57
2024-01-30T02:27:16.983Z,50.77
2024-01-30T02:27:48.819Z,52.57
2024-01-30T02:28:21.391Z,52.90
2024-01-30T02:28:53.203Z,51.33
2024-01-30T02:29:25.015Z,50.07
2024-01-30T02:29:56.803Z,51.40
2024-01-30T02:30:28.576Z,52.97
2024-01-30T02:31:00.395Z,53.77
2024-01-30T02:31:32.223Z,52.67
2024-01-30T02:32:04.163Z,52.20
2024-01-30T02:32:35.956Z,52.63
2024-01-30T02:33:07.824Z,51.70
2024-01-30T02:33:39.659Z,50.93
2024-01-30T02:34:11.656Z,50.23
2024-01-30T02:34:43.997Z,49.77
2024-01-30T02:35:15.929Z,49.53
2024-01-30T02:35:47.756Z,50.17
2024-01-30T02:36:19.622Z,50.30
2024-01-30T02:36:51.455Z,50.67
2024-01-30T02:37:23.507Z,50.47
2024-01-30T02:37:55.346Z,50.70
2024-01-30T02:38:28.142Z,51.93
2024-01-30T02:39:00.044Z,51.40
2024-01-30T02:39:31.809Z,51.13
2024-01-30T02:40:03.995Z,51.57
2024-01-30T02:40:35.809Z,52.23
2024-01-30T02:41:07.596Z,52.37
2024-01-30T02:41:39.352Z,51.67
2024-01-30T02:42:11.111Z,51.07
2024-01-30T02:42:43.184Z,50.30
2024-01-30T02:43:15.176Z,52.67
2024-01-30T02:43:47.144Z,52.10
2024-01-30T02:44:19.036Z,50.73
2024-01-30T02:44:50.787Z,51.53
2024-01-30T02:45:22.541Z,50.50
2024-01-30T02:45:54.329Z,49.23
2024-01-30T02:46:26.179Z,48.83
2024-01-30T02:46:57.972Z,51.47
2024-01-30T02:47:29.845Z,50.27
2024-01-30T02:48:01.655Z,50.30
2024-01-30T02:48:33.556Z,50.20
2024-01-30T02:49:05.484Z,50.20
2024-01-30T02:49:37.393Z,49.20
2024-01-30T02:50:09.506Z,49.10
2024-01-30T02:50:41.371Z,50.37
2024-01-30T02:51:13.142Z,49.30
2024-01-30T02:51:44.999Z,49.70
2024-01-30T02:52:16.825Z,50.43
2024-01-30T02:52:48.610Z,48.53
2024-01-30T02:53:20.354Z,49.63
2024-01-30T02:53:52.102Z,50.90
2024-01-30T02:54:23.861Z,50.67
2024-01-30T02:54:55.732Z,50.47
2024-01-30T02:55:27.643Z,49.53
2024-01-30T02:55:59.408Z,51.40
2024-01-30T02:56:31.191Z,50.97
2024-01-30T02:57:03.029Z,50.50
2024-01-30T02:57:35.519Z,50.37
2024-01-30T02:58:07.327Z,50.50
2024-01-30T02:58:39.131Z,48.50
2024-01-30T02:59:10.983Z,47.47
2024-01-30T02:59:43.191Z,49.00
2024-01-30T03:00:15.557Z,50.97
2024-01-30T03:00:47.423Z,48.43
2024-01-30T03:01:19.470Z,40.77
2024-01-30T03:01:51.373Z,48.10
2024-01-30T03:02:23.265Z,47.20
2024-01-30T03:02:55.045Z,43.00
2024-01-30T03:03:26.824Z,43.40
2024-01-30T03:03:58.698Z,45.80
2024-01-30T03:04:31.529Z,45.53
2024-01-30T03:05:04.982Z,44.37
2024-01-30T03:05:36.962Z,37.17
2024-01-30T03:06:08.734Z,35.27
2024-01-30T03:06:40.609Z,38.10
2024-01-30T03:07:12.750Z,40.33
2024-01-30T03:07:44.716Z,42.23
2024-01-30T03:08:16.634Z,35.43
2024-01-30T03:08:48.464Z,37.43
2024-01-30T03:09:20.246Z,41.77
2024-01-30T03:09:52.119Z,42.67
2024-01-30T03:10:24.057Z,42.67
2024-01-30T03:10:55.833Z,40.33
2024-01-30T03:11:27.604Z,37.57
2024-01-30T03:11:59.413Z,35.60
2024-01-30T03:12:31.183Z,39.73
2024-01-30T03:13:03.041Z,42.40
2024-01-30T03:13:34.843Z,37.70
2024-01-30T03:14:06.644Z,36.67
2024-01-30T03:14:38.844Z,39.27
2024-01-30T03:15:11.203Z,32.23
2024-01-30T03:15:43.018Z,29.40
2024-01-30T03:16:17.724Z,38.70
2024-01-30T03:16:49.532Z,32.53
2024-01-30T03:17:21.289Z,37.53
2024-01-30T03:17:54.693Z,38.00
2024-01-30T03:18:26.602Z,34.13
2024-01-30T03:18:58.503Z,35.13
2024-01-30T03:19:30.512Z,35.87
2024-01-30T03:20:02.569Z,32.00
2024-01-30T03:20:34.965Z,37.50
2024-01-30T03:21:06.993Z,38.33
2024-01-30T03:21:39.005Z,38.33
2024-01-30T03:22:11.228Z,35.73
2024-01-30T03:22:43.260Z,35.70
2024-01-30T03:23:15.005Z,37.87
2024-01-30T03:23:46.785Z,37.87
2024-01-30T03:24:18.587Z,35.90
2024-01-30T03:24:50.389Z,34.87
2024-01-30T03:25:22.284Z,36.57
2024-01-30T03:25:54.084Z,34.70
2024-01-30T03:26:27.950Z,37.00
2024-01-30T03:26:59.715Z,35.63
2024-01-30T03:27:31.504Z,35.83
2024-01-30T03:28:03.380Z,31.10
2024-01-30T03:28:35.183Z,30.53
2024-01-30T03:29:07.062Z,33.70
2024-01-30T03:29:38.856Z,31.23
2024-01-30T03:30:10.733Z,31.13
2024-01-30T03:30:42.625Z,32.47
2024-01-30T03:31:15.893Z,31.77
2024-01-30T03:31:47.663Z,31.93
2024-01-30T03:32:19.414Z,33.43
2024-01-30T03:32:51.593Z,36.87
2024-01-30T03:33:23.484Z,34.67
2024-01-30T03:33:55.521Z,36.53
2024-01-30T03:34:27.945Z,32.77
2024-01-30T03:35:00.659Z,30.83
2024-01-30T03:35:32.743Z,33.70
2024-01-30T03:36:05.166Z,37.90
2024-01-30T03:36:36.914Z,35.23
2024-01-30T03:37:08.755Z,32.83
2024-01-30T03:37:40.563Z,31.73
2024-01-30T03:38:12.346Z,33.23
2024-01-30T03:38:44.161Z,35.30
2024-01-30T03:39:16.174Z,33.47
2024-01-30T03:39:47.958Z,32.73
2024-01-30T03:40:19.810Z,32.97
2024-01-30T03:40:51.637Z,32.93
2024-01-30T03:41:23.395Z,31.83
2024-01-30T03:41:55.237Z,32.37
2024-01-30T03:42:27.133Z,35.03
2024-01-30T03:42:59.319Z,33.20
2024-01-30T03:43:31.121Z,32.10
2024-01-30T03:44:03.065Z,32.63
2024-01-30T03:44:34.842Z,34.23
2024-01-30T03:45:06.862Z,32.33
2024-01-30T03:45:38.656Z,30.83
2024-01-30T03:46:10.518Z,31.13
2024-01-30T03:46:42.296Z,29.80
2024-01-30T03:47:14.053Z,28.20
2024-01-30T03:47:45.837Z,27.10
2024-01-30T03:48:17.609Z,29.13
2024-01-30T03:48:49.444Z,30.97
2024-01-30T03:49:22.391Z,31.50
2024-01-30T03:49:54.336Z,32.50
2024-01-30T03:50:26.199Z,30.80
2024-01-30T03:50:58.058Z,30.50
2024-01-30T03:51:29.820Z,31.13
2024-01-30T03:52:01.599Z,31.47
2024-01-30T03:52:33.426Z,30.97
2024-01-30T03:53:05.347Z,28.50
2024-01-30T03:53:37.116Z,27.60
2024-01-30T03:54:09.194Z,28.00
2024-01-30T03:54:41.047Z,29.37
2024-01-30T03:55:12.887Z,28.17
2024-01-30T03:55:44.912Z,26.20
2024-01-30T03:56:16.752Z,27.07
2024-01-30T03:56:48.624Z,27.93
2024-01-30T03:57:20.396Z,27.33
2024-01-30T03:57:52.179Z,27.00
2024-01-30T03:58:24.001Z,28.10
2024-01-30T03:58:56.875Z,26.90
2024-01-30T03:59:28.917Z,26.97
2024-01-30T04:00:02.798Z,27.17
2024-01-30T04:00:35.270Z,26.10
2024-01-30T04:01:07.358Z,26.37
2024-01-30T04:01:39.368Z,28.10
2024-01-30T04:02:12.438Z,25.07
2024-01-30T04:02:44.329Z,25.50
2024-01-30T04:03:19.390Z,25.67
2024-01-30T04:03:51.222Z,26.17
2024-01-30T04:04:23.232Z,25.17
2024-01-30T04:04:55.214Z,25.73
2024-01-30T04:05:27.101Z,26.87
2024-01-30T04:05:59.091Z,26.00
2024-01-30T04:06:30.904Z,25.33
2024-01-30T04:07:02.709Z,26.07
2024-01-30T04:07:34.510Z,26.87
2024-01-30T04:08:06.403Z,27.03
2024-01-30T04:08:38.438Z,26.60
2024-01-30T04:09:10.181Z,26.67
2024-01-30T04:09:42.008Z,26.03
2024-01-30T04:10:14.198Z,25.30
2024-01-30T04:10:45.990Z,25.90
2024-01-30T04:11:19.565Z,25.60
2024-01-30T04:11:51.334Z,25.53
2024-01-30T04:12:23.116Z,25.03
2024-01-30T04:12:55.622Z,25.80
2024-01-30T04:13:27.605Z,26.47
2024-01-30T04:13:59.491Z,27.00
2024-01-30T04:14:31.374Z,27.07
2024-01-30T04:15:04.626Z,27.43
2024-01-30T04:15:36.456Z,27.47
2024-01-30T04:16:08.277Z,26.73
2024-01-30T04:16:40.073Z,27.53
2024-01-30T04:17:11.869Z,26.90
2024-01-30T04:17:43.698Z,26.93
2024-01-30T04:18:15.501Z,26.93
2024-01-30T04:18:47.417Z,25.87
2024-01-30T04:19:19.330Z,26.00
2024-01-30T04:19:51.347Z,26.70
2024-01-30T04:20:23.197Z,26.93
2024-01-30T04:20:55.248Z,27.17
2024-01-30T04:21:27.000Z,26.80
2024-01-30T04:21:58.814Z,26.27
2024-01-30T04:22:30.996Z,26.40
2024-01-30T04:23:02.776Z,25.87
2024-01-30T04:23:34.597Z,26.73
2024-01-30T04:24:06.617Z,27.10
2024-01-30T04:24:38.446Z,27.80
2024-01-30T04:25:10.257Z,28.87
2024-01-30T04:25:42.050Z,28.93
2024-01-30T04:26:13.856Z,28.30
2024-01-30T04:26:45.620Z,27.53
2024-01-30T04:27:17.387Z,26.77
2024-01-30T04:27:49.270Z,26.83
2024-01-30T04:28:21.159Z,25.70
2024-01-30T04:28:53.188Z,27.50
2024-01-30T04:29:24.954Z,26.37
2024-01-30T04:29:56.744Z,26.30
2024-01-30T04:30:28.505Z,28.13
2024-01-30T04:31:00.333Z,27.57
2024-01-30T04:31:32.133Z,26.50
2024-01-30T04:32:03.993Z,28.20
2024-01-30T04:32:37.738Z,27.70
2024-01-30T04:33:09.675Z,27.47
2024-01-30T04:33:41.617Z,27.57
2024-01-30T04:34:13.492Z,28.80
2024-01-30T04:34:45.525Z,28.80
2024-01-30T04:35:17.545Z,27.00
2024-01-30T04:35:49.466Z,28.67
2024-01-30T04:36:21.238Z,27.93
2024-01-30T04:36:53.053Z,26.50
2024-01-30T04:37:24.978Z,27.87
2024-01-30T04:37:56.769Z,27.43
2024-01-30T04:38:28.537Z,26.80
2024-01-30T04:39:00.344Z,27.60
2024-01-30T04:39:33.956Z,27.60
2024-01-30T04:40:06.577Z,27.57
2024-01-30T04:40:38.479Z,27.40
2024-01-30T04:41:10.225Z,28.00
2024-01-30T04:41:41.985Z,27.50
2024-01-30T04:42:13.744Z,26.87
2024-01-30T04:42:45.580Z,27.57
2024-01-30T04:43:17.421Z,28.30
2024-01-30T04:43:49.236Z,26.83
2024-01-30T04:44:21.023Z,27.73
2024-01-30T04:44:52.821Z,27.93
2024-01-30T04:45:24.592Z,27.83
2024-01-30T04:45:56.367Z,28.47
2024-01-30T04:46:28.156Z,28.80
2024-01-30T04:47:02.611Z,27.50
2024-01-30T04:47:34.488Z,27.73
2024-01-30T04:48:06.578Z,28.60
2024-01-30T04:48:38.405Z,28.80
2024-01-30T04:49:10.413Z,28.93
2024-01-30T04:49:42.343Z,29.27
2024-01-30T04:50:14.675Z,30.17
2024-01-30T04:50:46.471Z,30.10
2024-01-30T04:51:18.250Z,29.93
2024-01-30T04:51:50.069Z,30.40
2024-01-30T04:52:22.292Z,30.17
2024-01-30T04:52:54.099Z,28.93
2024-01-30T04:53:25.904Z,29.43
2024-01-30T04:53:57.662Z,29.47
2024-01-30T04:54:29.532Z,30.20
2024-01-30T04:55:01.291Z,29.63
2024-01-30T04:55:33.148Z,31.03
2024-01-30T04:56:06.034Z,31.40
2024-01-30T04:56:37.805Z,32.33
2024-01-30T04:57:10.867Z,31.03
2024-01-30T04:57:42.677Z,31.07
2024-01-30T04:58:14.551Z,30.37
2024-01-30T04:58:46.361Z,29.93
2024-01-30T04:59:18.137Z,29.37
2024-01-30T04:59:50.184Z,30.13
2024-01-30T05:00:22.033Z,30.40
2024-01-30T05:00:53.883Z,29.47
2024-01-30T05:01:25.810Z,30.13
2024-01-30T05:01:57.881Z,30.43
2024-01-30T05:02:29.715Z,61.37
2024-01-30T05:03:01.465Z,98.93
2024-01-30T05:03:37.245Z,76.53
2024-01-30T05:04:10.441Z,147.07
2024-01-30T05:04:43.454Z,89.57
2024-01-30T05:05:15.315Z,76.40
2024-01-30T05:05:47.194Z,205.53
2024-01-30T05:06:28.109Z,80.67
2024-01-30T05:07:00.002Z,80.33
2024-01-30T05:07:32.045Z,83.60
2024-01-30T05:08:03.890Z,188.13
2024-01-30T05:08:37.835Z,94.83
2024-01-30T05:09:10.509Z,42.50
2024-01-30T05:09:42.280Z,63.37
2024-01-30T05:10:14.237Z,42.97
2024-01-30T05:10:46.077Z,35.83
2024-01-30T05:11:17.927Z,34.67
2024-01-30T05:11:49.675Z,37.00
2024-01-30T05:12:24.178Z,34.43
2024-01-30T05:12:55.996Z,31.90
2024-01-30T05:13:27.857Z,30.27
2024-01-30T05:13:59.686Z,30.93
2024-01-30T05:14:31.437Z,32.67
2024-01-30T05:15:03.215Z,31.57
2024-01-30T05:15:34.993Z,30.03
2024-01-30T05:16:06.922Z,29.33
2024-01-30T05:16:38.820Z,30.93
2024-01-30T05:17:11.491Z,30.10
2024-01-30T05:17:43.312Z,30.17
2024-01-30T05:18:15.330Z,29.10
2024-01-30T05:18:47.225Z,29.03
2024-01-30T05:19:19.299Z,30.17
2024-01-30T05:19:51.263Z,31.20
2024-01-30T05:20:23.185Z,30.63
2024-01-30T05:20:55.063Z,31.27
2024-01-30T05:21:26.909Z,35.97
2024-01-30T05:21:58.743Z,48.87
2024-01-30T05:22:30.558Z,114.90
2024-01-30T05:23:02.350Z,105.07
2024-01-30T05:23:34.119Z,89.43
2024-01-30T05:24:06.015Z,58.10
2024-01-30T05:24:38.274Z,67.93
2024-01-30T05:25:10.082Z,96.77
2024-01-30T05:25:41.968Z,79.07
2024-01-30T05:26:13.755Z,191.37
2024-01-30T05:26:45.637Z,47.87
2024-01-30T05:27:17.388Z,36.10
2024-01-30T05:27:49.194Z,32.50
2024-01-30T05:28:21.177Z,31.53
2024-01-30T05:28:53.087Z,32.10
2024-01-30T05:29:25.723Z,31.50
2024-01-30T05:29:57.488Z,30.83
2024-01-30T05:30:29.386Z,30.93
2024-01-30T05:31:01.220Z,31.17
2024-01-30T05:31:33.128Z,30.50
2024-01-30T05:32:06.762Z,30.83
2024-01-30T05:32:38.683Z,32.13
2024-01-30T05:33:11.286Z,31.57
2024-01-30T05:33:43.568Z,30.17
2024-01-30T05:34:15.950Z,30.77
2024-01-30T05:34:48.034Z,31.33
2024-01-30T05:35:22.351Z,31.67
2024-01-30T05:35:55.950Z,31.37
2024-01-30T05:36:28.015Z,30.87
2024-01-30T05:37:00.270Z,32.43
2024-01-30T05:37:32.576Z,31.60
2024-01-30T05:38:06.370Z,31.87
2024-01-30T05:38:38.122Z,31.33
2024-01-30T05:39:10.426Z,32.13
2024-01-30T05:39:44.771Z,31.03
2024-01-30T05:40:16.676Z,31.50
2024-01-30T05:40:49.992Z,32.23
2024-01-30T05:41:22.447Z,32.57
2024-01-30T05:41:54.216Z,32.80
2024-01-30T05:42:26.482Z,33.63
2024-01-30T05:43:02.202Z,33.87
2024-01-30T05:43:34.054Z,33.57
2024-01-30T05:44:06.166Z,33.30
2024-01-30T05:44:38.198Z,33.83
2024-01-30T05:45:10.556Z,32.83
2024-01-30T05:45:42.501Z,32.67
2024-01-30T05:46:14.426Z,32.63
2024-01-30T05:46:46.199Z,33.13
2024-01-30T05:47:18.545Z,33.10
2024-01-30T05:47:50.344Z,33.47
2024-01-30T05:48:22.580Z,32.83
2024-01-30T05:48:54.591Z,32.90
2024-01-30T05:49:26.509Z,32.00
2024-01-30T05:49:58.489Z,32.60
2024-01-30T05:50:30.398Z,32.07
2024-01-30T05:51:02.525Z,32.83
2024-01-30T05:51:34.404Z,32.67
2024-01-30T05:52:06.517Z,32.77
2024-01-30T05:52:38.526Z,31.87
2024-01-30T05:53:10.401Z,31.23
2024-01-30T05:53:42.205Z,32.17
2024-01-30T05:54:16.897Z,31.80
2024-01-30T05:54:49.673Z,31.90
2024-01-30T05:55:21.665Z,31.57
2024-01-30T05:55:53.589Z,32.10
2024-01-30T05:56:25.359Z,31.57
2024-01-30T05:56:57.143Z,32.07
2024-01-30T05:57:28.909Z,32.07
2024-01-30T05:58:01.060Z,32.20
2024-01-30T05:58:32.882Z,31.93
2024-01-30T05:59:04.891Z,32.13
2024-01-30T05:59:40.756Z,32.87
2024-01-30T06:00:14.152Z,32.17
2024-01-30T06:00:46.058Z,31.83
2024-01-30T06:01:18.066Z,31.50
2024-01-30T06:01:50.225Z,31.73
2024-01-30T06:02:22.089Z,32.37
2024-01-30T06:02:53.852Z,33.07
2024-01-30T06:03:25.915Z,33.97
2024-01-30T06:03:57.783Z,30.93
2024-01-30T06:04:29.689Z,31.87
2024-01-30T06:05:01.618Z,32.10
2024-01-30T06:05:33.490Z,32.77
2024-01-30T06:06:05.372Z,32.87
2024-01-30T06:06:37.150Z,33.60
2024-01-30T06:07:09.425Z,31.77
2024-01-30T06:07:41.366Z,36.70
2024-01-30T06:08:13.326Z,63.27
2024-01-30T06:08:46.668Z,45.73
2024-01-30T06:09:18.475Z,36.10
2024-01-30T06:09:50.252Z,34.10
2024-01-30T06:10:22.119Z,33.87
2024-01-30T06:10:53.952Z,33.70
2024-01-30T06:11:25.770Z,33.13
2024-01-30T06:11:57.547Z,32.30
2024-01-30T06:12:29.463Z,31.40
2024-01-30T06:13:01.296Z,31.43
2024-01-30T06:13:33.262Z,32.47
2024-01-30T06:14:05.063Z,32.47
2024-01-30T06:14:37.190Z,33.50
2024-01-30T06:15:09.210Z,33.37
2024-01-30T06:15:41.029Z,34.10
2024-01-30T06:16:13.269Z,34.50
2024-01-30T06:16:45.179Z,35.80
2024-01-30T06:17:16.944Z,34.93
2024-01-30T06:17:48.729Z,34.43
2024-01-30T06:18:21.928Z,33.73
2024-01-30T06:18:53.757Z,37.87
2024-01-30T06:19:25.690Z,39.33
2024-01-30T06:19:57.625Z,36.40
2024-01-30T06:20:29.726Z,36.43
2024-01-30T06:21:01.573Z,36.23
2024-01-30T06:21:35.471Z,35.60
2024-01-30T06:22:07.262Z,36.63
2024-01-30T06:22:39.101Z,36.67
2024-01-30T06:23:11.454Z,35.90
2024-01-30T06:23:43.243Z,38.90
2024-01-30T06:24:15.138Z,39.77
2024-01-30T06:24:49.261Z,40.33
2024-01-30T06:25:21.220Z,38.10
2024-01-30T06:25:54.181Z,38.70
2024-01-30T06:26:25.954Z,39.33
2024-01-30T06:26:57.752Z,39.27
2024-01-30T06:27:29.630Z,39.67
2024-01-30T06:28:01.491Z,40.03
2024-01-30T06:28:33.329Z,38.27
2024-01-30T06:29:05.482Z,35.27
2024-01-30T06:29:37.288Z,35.37
2024-01-30T06:30:09.337Z,34.90
2024-01-30T06:30:41.119Z,34.87
2024-01-30T06:31:13.196Z,35.10
2024-01-30T06:31:44.962Z,35.90
2024-01-30T06:32:16.984Z,35.17
2024-01-30T06:32:48.802Z,34.30
2024-01-30T06:33:20.646Z,36.03
2024-01-30T06:33:52.639Z,34.73
2024-01-30T06:34:24.640Z,35.83
2024-01-30T06:34:56.512Z,34.27
2024-01-30T06:35:30.246Z,35.17
2024-01-30T06:36:02.041Z,35.70
2024-01-30T06:36:33.840Z,34.37
2024-01-30T06:37:07.396Z,35.63
2024-01-30T06:37:39.403Z,34.97
2024-01-30T06:38:11.678Z,33.63
2024-01-30T06:38:43.419Z,34.73
2024-01-30T06:39:15.328Z,35.70
2024-01-30T06:39:47.125Z,35.53
2024-01-30T06:40:19.054Z,35.23
2024-01-30T06:40:50.894Z,35.70
2024-01-30T06:41:22.762Z,35.67
2024-01-30T06:41:54.564Z,36.87
2024-01-30T06:42:26.430Z,37.33
2024-01-30T06:42:58.283Z,38.17
2024-01-30T06:43:30.272Z,38.67
2024-01-30T06:44:05.307Z,37.17
2024-01-30T06:44:37.086Z,36.87
2024-01-30T06:45:09.368Z,36.83
2024-01-30T06:45:41.694Z,37.17
2024-01-30T06:46:14.460Z,36.33
2024-01-30T06:46:46.299Z,35.63
2024-01-30T06:47:18.080Z,37.50
2024-01-30T06:47:49.901Z,36.93
2024-01-30T06:48:21.941Z,37.50
2024-01-30T06:48:53.741Z,37.40
2024-01-30T06:49:25.685Z,37.87
2024-01-30T06:49:57.593Z,38.03
2024-01-30T06:50:29.594Z,38.03
2024-01-30T06:51:01.448Z,37.53
2024-01-30T06:51:33.947Z,37.50
2024-01-30T06:52:09.025Z,37.30
2024-01-30T06:52:40.907Z,37.80
2024-01-30T06:53:12.680Z,38.67
2024-01-30T06:53:44.566Z,38.03
2024-01-30T06:54:16.362Z,37.67